Accueil
METAR-TAF:

METAR-TAF

Aéroports :

Aéroport de Southampton

Southampton, Angleterre

latitude: 50-54N, longitude: 001-24W, altitude: 9 m

Observation

Le bulletin a été fait il y a 24 minutes, à 11:20 UTC
Vent 6 kt de ouest/nord-ouest, variant entre ouest/sud-ouest et nord/nord-ouest
Température 11°C
Humidité 54%
Pression 1019 hPa
Visibilité 10 km ou plus
Nuages épars à une hauteur de 3000 ft

METAR: EGHI 031120Z 30006KT 250V340 9999 SCT030 11/02 Q1019

Heure: 12:44 (11:44 UTC)

Prévision

Le bulletin a été fait il y a 15 minutes, à 11:29 UTC
Prévision valable du 03 à 11 UTC au 03 à 13 UTC
Vent 6 kt de ouest/nord-ouest
Visibilité 10 km ou plus
Nuages épars à une hauteur de 3000 ft
Probabilité 30% :
Temporairement
du 03 à 11 UTC au 03 à 13 UTC
Visibilité: 8000 m
averses de pluie

TAF: EGHI 031129Z 0311/0313 30006KT 9999 SCT030 PROB30 TEMPO 0311/0313 8000 SHRA

Observations et prévisions météorologiques de plus de 4000 aéroports (messages METAR et TAF).

Les stations disponibles sont représentées par des disques jaunes et rouges sur la carte.

Passer la souris dessus pour voir le nom de la station.

Cliquer dessus pour voir les observations et prévisions météorologiques.

Pour changer de carte: cliquez sur les boutons verts avec une croix noire pour zoomer, sur le bouton vert avec un tiret pour effectuer un zoom arrière, ou sur les flèches vertes pour les cartes adjacentes.


METAR-TAF: